Florence Regional Airport
KFLO : now visible

Airfield :











YOU CAN JOIN US ON...

 
LOGIN :

Register | Disclaimer

   EN    FR    IT 

 









Legend :    VFR   Marginal VFR   IFR   Intensive IFR   Very Intensive IFR
Visi :
Ceiling :
>= 8 km
>= 3000ft
5 to 8 km
1000 to 3000 ft
1500m to 5 km
500 to 1000 ft
800 to 1500m
200 to 500 ft
< 800m
< 200 ft
Symbols :   Thunderstorms  Fog  Heavy snow  Heavy precipitations  Wind > 20 kt






- Airport Elevation : 146 ft
- IATA code : FLO


KFLO - Florence Regional

CURRENT METAR :
  • 191525Z 02014G21KT 4SM -RA BR OVC009 13/11 A3027 RMK AO2 RAB13 CIG 007V014 P0000 T01280106

EXPIRED METARs :
  • 191453Z 02011G19KT 7SM OVC010 13/11 A3023 RMK AO2 RAE48 CIG 005V014 SLP235 P0002 60010 T01330111 51031
  • 191446Z 03013G20KT 8SM -RA OVC010 13/11 A3023 RMK AO2 CIG 005V013 P0002 T01330111
  • 191414Z 01015G23KT 6SM -RA BR BKN006 OVC019 17/15 A3021 RMK AO2 CIG 004V010 P0001 T01670150
  • 191405Z 36006KT 6SM -RA BR SCT006 OVC017 17/15 A3021 RMK AO2 P0000 T01670150
  • 191353Z 34006KT 6SM -RA BR FEW006 BKN014 OVC019 17/15 A3021 RMK AO2 SLP227 P0004 T01670150
  • 191253Z 34005KT 5SM -RA BR BKN005 BKN120 17/16 A3017 RMK AO2 SLP214 P0004 T01670156

TAF KFLO
Valid from the 19 at 15:00 until the 20 at 12:00 UTC


191434Z 1915/2012 01015G23KT 6SM -RA BR BKN006 OVC019
FM191800 02010G17KT P6SM -RA BKN020
FM200200 03007KT P6SM BKN016



MET'MAP, your aeronautical weather chart ! - Copyright ORBIFLY December 2007 - Disclaimer

ORBIFLY MET'MAP TEAM :

Programming & Development : Alexandra Zaïnal
Concept & original design : Baudouin d'Aumeries
Assistance for programming : Marc-Olivier Méhu
Technical & hardware support : Manuel Goepfert

Contact : metmap@orbifly.com




SOURCES & CREDITS :

   NOAA       Earth
Advisory